sensor_id;sensor_type;location;lat;lon;timestamp;temperature;humidity
18317;DHT22;9284;52.298;21.164;2023-05-02T00:01:34;6.90;1.00
18317;DHT22;9284;52.298;21.164;2023-05-02T00:04:03;6.80;1.00
18317;DHT22;9284;52.298;21.164;2023-05-02T00:06:32;6.80;1.00
18317;DHT22;9284;52.298;21.164;2023-05-02T00:09:00;6.80;1.00
18317;DHT22;9284;52.298;21.164;2023-05-02T00:11:28;6.70;1.00
18317;DHT22;9284;52.298;21.164;2023-05-02T00:13:57;6.70;1.00
18317;DHT22;9284;52.298;21.164;2023-05-02T00:16:25;6.80;1.00
18317;DHT22;9284;52.298;21.164;2023-05-02T00:18:55;6.80;1.00
18317;DHT22;9284;52.298;21.164;2023-05-02T00:21:23;6.80;1.00
18317;DHT22;9284;52.298;21.164;2023-05-02T00:23:51;6.80;1.00
18317;DHT22;9284;52.298;21.164;2023-05-02T00:26:19;6.90;1.00
18317;DHT22;9284;52.298;21.164;2023-05-02T00:28:48;6.90;1.00
18317;DHT22;9284;52.298;21.164;2023-05-02T00:31:16;6.90;1.00
18317;DHT22;9284;52.298;21.164;2023-05-02T00:33:44;6.80;1.00
18317;DHT22;9284;52.298;21.164;2023-05-02T00:36:15;7.00;1.00
18317;DHT22;9284;52.298;21.164;2023-05-02T00:38:44;6.90;1.00
18317;DHT22;9284;52.298;21.164;2023-05-02T00:41:12;7.00;1.00
18317;DHT22;9284;52.298;21.164;2023-05-02T00:43:40;7.00;1.00
18317;DHT22;9284;52.298;21.164;2023-05-02T00:46:09;7.00;1.00
18317;DHT22;9284;52.298;21.164;2023-05-02T00:48:39;7.10;1.00
18317;DHT22;9284;52.298;21.164;2023-05-02T00:51:07;7.10;1.00
18317;DHT22;9284;52.298;21.164;2023-05-02T00:53:39;7.10;99.90
18317;DHT22;9284;52.298;21.164;2023-05-02T00:56:08;7.20;99.90
18317;DHT22;9284;52.298;21.164;2023-05-02T00:58:37;7.10;99.90
18317;DHT22;9284;52.298;21.164;2023-05-02T01:01:28;7.10;99.90
18317;DHT22;9284;52.298;21.164;2023-05-02T01:04:09;7.20;99.90
18317;DHT22;9284;52.298;21.164;2023-05-02T01:06:50;7.20;99.90
18317;DHT22;9284;52.298;21.164;2023-05-02T01:09:36;7.30;99.90
18317;DHT22;9284;52.298;21.164;2023-05-02T01:12:13;7.30;99.90
18317;DHT22;9284;52.298;21.164;2023-05-02T01:14:46;7.30;99.90
18317;DHT22;9284;52.298;21.164;2023-05-02T01:17:18;7.30;99.90
18317;DHT22;9284;52.298;21.164;2023-05-02T01:19:52;7.40;99.90
18317;DHT22;9284;52.298;21.164;2023-05-02T01:22:23;7.30;99.90
18317;DHT22;9284;52.298;21.164;2023-05-02T01:25:02;7.40;99.90
18317;DHT22;9284;52.298;21.164;2023-05-02T01:27:38;7.40;99.90
18317;DHT22;9284;52.298;21.164;2023-05-02T01:30:10;7.40;99.90
18317;DHT22;9284;52.298;21.164;2023-05-02T01:32:40;7.40;99.90
18317;DHT22;9284;52.298;21.164;2023-05-02T01:35:13;7.50;99.90
18317;DHT22;9284;52.298;21.164;2023-05-02T01:37:42;7.50;99.90
18317;DHT22;9284;52.298;21.164;2023-05-02T01:40:14;7.60;99.90
18317;DHT22;9284;52.298;21.164;2023-05-02T01:42:46;7.60;99.90
18317;DHT22;9284;52.298;21.164;2023-05-02T01:45:18;7.60;99.90
18317;DHT22;9284;52.298;21.164;2023-05-02T01:47:48;7.60;99.90
18317;DHT22;9284;52.298;21.164;2023-05-02T01:50:19;7.60;99.90
18317;DHT22;9284;52.298;21.164;2023-05-02T01:52:52;7.70;99.90
18317;DHT22;9284;52.298;21.164;2023-05-02T01:55:21;7.70;99.90
18317;DHT22;9284;52.298;21.164;2023-05-02T01:57:52;7.70;99.90
18317;DHT22;9284;52.298;21.164;2023-05-02T02:00:23;7.80;99.90
18317;DHT22;9284;52.298;21.164;2023-05-02T02:02:56;7.70;99.90
18317;DHT22;9284;52.298;21.164;2023-05-02T02:05:26;7.80;99.90
18317;DHT22;9284;52.298;21.164;2023-05-02T02:07:55;7.90;99.90
18317;DHT22;9284;52.298;21.164;2023-05-02T02:10:25;7.90;99.90
18317;DHT22;9284;52.298;21.164;2023-05-02T02:13:02;8.00;99.90
18317;DHT22;9284;52.298;21.164;2023-05-02T02:15:34;8.00;99.90
18317;DHT22;9284;52.298;21.164;2023-05-02T02:18:08;8.00;99.90
18317;DHT22;9284;52.298;21.164;2023-05-02T02:20:38;8.10;99.90
18317;DHT22;9284;52.298;21.164;2023-05-02T02:23:08;8.10;99.90
18317;DHT22;9284;52.298;21.164;2023-05-02T02:25:38;8.10;99.90
18317;DHT22;9284;52.298;21.164;2023-05-02T02:28:06;8.00;99.90
18317;DHT22;9284;52.298;21.164;2023-05-02T02:30:36;8.10;99.90
18317;DHT22;9284;52.298;21.164;2023-05-02T02:33:04;8.10;99.90
18317;DHT22;9284;52.298;21.164;2023-05-02T02:35:36;8.20;99.90
18317;DHT22;9284;52.298;21.164;2023-05-02T02:38:12;8.20;99.90
18317;DHT22;9284;52.298;21.164;2023-05-02T02:40:45;8.20;99.90
18317;DHT22;9284;52.298;21.164;2023-05-02T02:43:19;8.10;99.90
18317;DHT22;9284;52.298;21.164;2023-05-02T02:46:12;8.10;99.90
18317;DHT22;9284;52.298;21.164;2023-05-02T02:48:48;8.10;99.90
18317;DHT22;9284;52.298;21.164;2023-05-02T02:51:24;8.00;99.90
18317;DHT22;9284;52.298;21.164;2023-05-02T02:54:00;8.00;99.90
18317;DHT22;9284;52.298;21.164;2023-05-02T02:57:05;8.00;99.90
18317;DHT22;9284;52.298;21.164;2023-05-02T02:59:39;8.00;99.90
18317;DHT22;9284;52.298;21.164;2023-05-02T03:02:14;8.00;99.90
18317;DHT22;9284;52.298;21.164;2023-05-02T03:04:44;7.90;99.90
18317;DHT22;9284;52.298;21.164;2023-05-02T03:07:13;7.90;99.90
18317;DHT22;9284;52.298;21.164;2023-05-02T03:09:44;7.90;99.90
18317;DHT22;9284;52.298;21.164;2023-05-02T03:12:18;7.90;99.90
18317;DHT22;9284;52.298;21.164;2023-05-02T03:14:48;7.80;99.90
18317;DHT22;9284;52.298;21.164;2023-05-02T03:17:18;7.90;99.90
18317;DHT22;9284;52.298;21.164;2023-05-02T03:19:46;8.00;99.90
18317;DHT22;9284;52.298;21.164;2023-05-02T03:22:15;7.90;99.90
18317;DHT22;9284;52.298;21.164;2023-05-02T03:24:44;7.80;99.90
18317;DHT22;9284;52.298;21.164;2023-05-02T03:27:13;7.90;99.90
18317;DHT22;9284;52.298;21.164;2023-05-02T03:29:41;7.90;99.90
18317;DHT22;9284;52.298;21.164;2023-05-02T03:32:11;7.90;99.90
18317;DHT22;9284;52.298;21.164;2023-05-02T03:34:43;7.90;99.90
18317;DHT22;9284;52.298;21.164;2023-05-02T03:37:12;7.90;99.90
18317;DHT22;9284;52.298;21.164;2023-05-02T03:39:40;7.90;99.90
18317;DHT22;9284;52.298;21.164;2023-05-02T03:42:08;7.80;99.90
18317;DHT22;9284;52.298;21.164;2023-05-02T03:44:39;7.80;99.90
18317;DHT22;9284;52.298;21.164;2023-05-02T03:47:08;7.80;99.90
18317;DHT22;9284;52.298;21.164;2023-05-02T03:49:39;7.80;99.90
18317;DHT22;9284;52.298;21.164;2023-05-02T03:52:09;7.90;99.90
18317;DHT22;9284;52.298;21.164;2023-05-02T03:54:38;7.90;99.90
18317;DHT22;9284;52.298;21.164;2023-05-02T03:57:08;7.90;99.90
18317;DHT22;9284;52.298;21.164;2023-05-02T03:59:38;7.90;99.90
18317;DHT22;9284;52.298;21.164;2023-05-02T04:02:20;7.90;99.90
18317;DHT22;9284;52.298;21.164;2023-05-02T04:04:49;7.90;99.90
18317;DHT22;9284;52.298;21.164;2023-05-02T04:07:21;8.00;99.90
18317;DHT22;9284;52.298;21.164;2023-05-02T04:09:58;8.00;99.90
18317;DHT22;9284;52.298;21.164;2023-05-02T04:12:29;8.00;99.90
18317;DHT22;9284;52.298;21.164;2023-05-02T04:14:57;8.10;99.90
18317;DHT22;9284;52.298;21.164;2023-05-02T04:17:28;8.20;99.90
18317;DHT22;9284;52.298;21.164;2023-05-02T04:19:57;8.20;99.90
18317;DHT22;9284;52.298;21.164;2023-05-02T04:22:31;8.30;99.90
18317;DHT22;9284;52.298;21.164;2023-05-02T04:25:04;8.30;99.90
18317;DHT22;9284;52.298;21.164;2023-05-02T04:27:34;8.40;99.90
18317;DHT22;9284;52.298;21.164;2023-05-02T04:30:04;8.50;99.90
18317;DHT22;9284;52.298;21.164;2023-05-02T04:32:32;8.50;99.90
18317;DHT22;9284;52.298;21.164;2023-05-02T04:35:04;8.60;99.90
18317;DHT22;9284;52.298;21.164;2023-05-02T04:37:34;8.70;99.90
18317;DHT22;9284;52.298;21.164;2023-05-02T04:40:03;8.80;99.90
18317;DHT22;9284;52.298;21.164;2023-05-02T04:42:32;8.90;99.90
18317;DHT22;9284;52.298;21.164;2023-05-02T04:45:12;9.00;99.90
18317;DHT22;9284;52.298;21.164;2023-05-02T04:47:42;9.10;99.90
18317;DHT22;9284;52.298;21.164;2023-05-02T04:50:10;9.20;99.90
18317;DHT22;9284;52.298;21.164;2023-05-02T04:52:40;9.20;99.90
18317;DHT22;9284;52.298;21.164;2023-05-02T04:55:09;9.20;99.90
18317;DHT22;9284;52.298;21.164;2023-05-02T04:57:37;9.30;99.90
18317;DHT22;9284;52.298;21.164;2023-05-02T05:00:07;9.30;99.90
18317;DHT22;9284;52.298;21.164;2023-05-02T05:02:36;9.40;99.90
18317;DHT22;9284;52.298;21.164;2023-05-02T05:05:05;9.40;99.90
18317;DHT22;9284;52.298;21.164;2023-05-02T05:07:33;9.50;99.90
18317;DHT22;9284;52.298;21.164;2023-05-02T05:10:04;9.50;99.90
18317;DHT22;9284;52.298;21.164;2023-05-02T05:12:39;9.50;99.90
18317;DHT22;9284;52.298;21.164;2023-05-02T05:15:11;9.60;99.90
18317;DHT22;9284;52.298;21.164;2023-05-02T05:17:44;9.60;99.90
18317;DHT22;9284;52.298;21.164;2023-05-02T05:20:13;9.60;99.90
18317;DHT22;9284;52.298;21.164;2023-05-02T05:22:41;9.70;99.90
18317;DHT22;9284;52.298;21.164;2023-05-02T05:25:13;9.80;99.90
18317;DHT22;9284;52.298;21.164;2023-05-02T05:27:43;9.90;99.90
18317;DHT22;9284;52.298;21.164;2023-05-02T05:30:13;10.00;99.90
18317;DHT22;9284;52.298;21.164;2023-05-02T05:32:42;10.10;99.90
18317;DHT22;9284;52.298;21.164;2023-05-02T05:35:11;10.30;99.90
18317;DHT22;9284;52.298;21.164;2023-05-02T05:37:40;10.50;99.90
18317;DHT22;9284;52.298;21.164;2023-05-02T05:40:12;10.60;99.90
18317;DHT22;9284;52.298;21.164;2023-05-02T05:42:43;10.80;99.90
18317;DHT22;9284;52.298;21.164;2023-05-02T05:45:18;11.00;99.90
18317;DHT22;9284;52.298;21.164;2023-05-02T05:47:46;11.20;99.90
18317;DHT22;9284;52.298;21.164;2023-05-02T05:50:15;11.50;99.90
18317;DHT22;9284;52.298;21.164;2023-05-02T05:52:45;11.80;99.90
18317;DHT22;9284;52.298;21.164;2023-05-02T05:55:15;12.00;99.90
18317;DHT22;9284;52.298;21.164;2023-05-02T05:57:43;12.20;99.90
18317;DHT22;9284;52.298;21.164;2023-05-02T06:00:13;12.60;99.90
18317;DHT22;9284;52.298;21.164;2023-05-02T06:02:45;12.90;99.90
18317;DHT22;9284;52.298;21.164;2023-05-02T06:05:23;13.20;99.90
18317;DHT22;9284;52.298;21.164;2023-05-02T06:07:51;13.20;99.90
18317;DHT22;9284;52.298;21.164;2023-05-02T06:10:21;13.50;99.90
18317;DHT22;9284;52.298;21.164;2023-05-02T06:12:50;14.20;99.90
18317;DHT22;9284;52.298;21.164;2023-05-02T06:15:23;15.20;99.90
18317;DHT22;9284;52.298;21.164;2023-05-02T06:17:51;15.80;99.90
18317;DHT22;9284;52.298;21.164;2023-05-02T06:20:20;16.40;99.90
18317;DHT22;9284;52.298;21.164;2023-05-02T06:22:48;16.60;99.90
18317;DHT22;9284;52.298;21.164;2023-05-02T06:25:16;17.40;99.90
18317;DHT22;9284;52.298;21.164;2023-05-02T06:27:46;17.90;99.90
18317;DHT22;9284;52.298;21.164;2023-05-02T06:30:14;18.30;99.90
18317;DHT22;9284;52.298;21.164;2023-05-02T06:32:42;18.80;99.90
18317;DHT22;9284;52.298;21.164;2023-05-02T06:35:11;19.10;99.90
18317;DHT22;9284;52.298;21.164;2023-05-02T06:37:40;18.40;99.90
18317;DHT22;9284;52.298;21.164;2023-05-02T06:40:09;18.20;99.90
18317;DHT22;9284;52.298;21.164;2023-05-02T06:42:37;17.90;99.90
18317;DHT22;9284;52.298;21.164;2023-05-02T06:45:07;17.70;99.90
18317;DHT22;9284;52.298;21.164;2023-05-02T06:47:36;18.20;99.90
18317;DHT22;9284;52.298;21.164;2023-05-02T06:50:05;18.60;99.90
18317;DHT22;9284;52.298;21.164;2023-05-02T06:52:33;19.10;99.90
18317;DHT22;9284;52.298;21.164;2023-05-02T06:55:02;19.50;99.90
18317;DHT22;9284;52.298;21.164;2023-05-02T06:57:30;19.70;99.90
18317;DHT22;9284;52.298;21.164;2023-05-02T06:59:58;19.70;99.90
18317;DHT22;9284;52.298;21.164;2023-05-02T07:02:28;20.10;99.90
18317;DHT22;9284;52.298;21.164;2023-05-02T07:04:56;20.40;99.90
18317;DHT22;9284;52.298;21.164;2023-05-02T07:07:24;20.70;99.90
18317;DHT22;9284;52.298;21.164;2023-05-02T07:09:52;20.20;99.90
18317;DHT22;9284;52.298;21.164;2023-05-02T07:12:21;20.20;99.90
18317;DHT22;9284;52.298;21.164;2023-05-02T07:14:49;20.70;99.90
18317;DHT22;9284;52.298;21.164;2023-05-02T07:17:17;21.10;99.90
18317;DHT22;9284;52.298;21.164;2023-05-02T07:19:47;21.30;99.90
18317;DHT22;9284;52.298;21.164;2023-05-02T07:22:15;21.40;99.90
18317;DHT22;9284;52.298;21.164;2023-05-02T07:24:43;21.70;99.90
18317;DHT22;9284;52.298;21.164;2023-05-02T07:27:12;21.90;99.90
18317;DHT22;9284;52.298;21.164;2023-05-02T07:29:40;22.20;99.90
18317;DHT22;9284;52.298;21.164;2023-05-02T07:32:08;22.20;99.90
18317;DHT22;9284;52.298;21.164;2023-05-02T07:34:37;22.50;99.90
18317;DHT22;9284;52.298;21.164;2023-05-02T07:37:07;22.40;99.90
18317;DHT22;9284;52.298;21.164;2023-05-02T07:39:35;22.70;99.90
18317;DHT22;9284;52.298;21.164;2023-05-02T07:42:03;22.90;99.90
18317;DHT22;9284;52.298;21.164;2023-05-02T07:44:32;22.40;99.90
18317;DHT22;9284;52.298;21.164;2023-05-02T07:47:01;22.30;99.90
18317;DHT22;9284;52.298;21.164;2023-05-02T07:49:29;22.30;99.90
18317;DHT22;9284;52.298;21.164;2023-05-02T07:51:58;22.30;99.90
18317;DHT22;9284;52.298;21.164;2023-05-02T07:54:28;22.60;99.90
18317;DHT22;9284;52.298;21.164;2023-05-02T07:56:57;23.00;99.90
18317;DHT22;9284;52.298;21.164;2023-05-02T07:59:29;23.50;99.90
18317;DHT22;9284;52.298;21.164;2023-05-02T08:01:58;23.30;99.90
18317;DHT22;9284;52.298;21.164;2023-05-02T08:04:26;23.40;99.90
18317;DHT22;9284;52.298;21.164;2023-05-02T08:06:55;23.00;99.90
18317;DHT22;9284;52.298;21.164;2023-05-02T08:09:23;22.80;99.90
18317;DHT22;9284;52.298;21.164;2023-05-02T08:11:54;23.00;99.90
18317;DHT22;9284;52.298;21.164;2023-05-02T08:14:22;23.30;99.90
18317;DHT22;9284;52.298;21.164;2023-05-02T08:16:50;23.50;99.90
18317;DHT22;9284;52.298;21.164;2023-05-02T08:19:19;23.30;99.90
18317;DHT22;9284;52.298;21.164;2023-05-02T08:21:47;23.40;99.90
18317;DHT22;9284;52.298;21.164;2023-05-02T08:24:15;23.30;99.90
18317;DHT22;9284;52.298;21.164;2023-05-02T08:26:44;23.70;99.90
18317;DHT22;9284;52.298;21.164;2023-05-02T08:29:13;23.80;99.90
18317;DHT22;9284;52.298;21.164;2023-05-02T08:31:42;24.00;99.90
18317;DHT22;9284;52.298;21.164;2023-05-02T08:34:10;24.00;99.90
18317;DHT22;9284;52.298;21.164;2023-05-02T08:36:38;23.60;99.90
18317;DHT22;9284;52.298;21.164;2023-05-02T08:39:06;23.60;99.90
18317;DHT22;9284;52.298;21.164;2023-05-02T08:41:35;23.90;99.90
18317;DHT22;9284;52.298;21.164;2023-05-02T08:44:05;24.00;99.90
18317;DHT22;9284;52.298;21.164;2023-05-02T08:46:35;24.30;99.90
18317;DHT22;9284;52.298;21.164;2023-05-02T08:49:09;24.00;99.90
18317;DHT22;9284;52.298;21.164;2023-05-02T08:51:37;23.70;99.90
18317;DHT22;9284;52.298;21.164;2023-05-02T08:54:08;23.90;99.90
18317;DHT22;9284;52.298;21.164;2023-05-02T08:56:37;24.10;99.90
18317;DHT22;9284;52.298;21.164;2023-05-02T08:59:05;23.90;99.90
18317;DHT22;9284;52.298;21.164;2023-05-02T09:01:36;23.90;99.90
18317;DHT22;9284;52.298;21.164;2023-05-02T09:04:08;23.80;99.90
18317;DHT22;9284;52.298;21.164;2023-05-02T09:06:37;24.40;99.90
18317;DHT22;9284;52.298;21.164;2023-05-02T09:09:05;24.20;99.90
18317;DHT22;9284;52.298;21.164;2023-05-02T09:11:34;24.20;99.90
18317;DHT22;9284;52.298;21.164;2023-05-02T09:14:13;24.50;99.90
18317;DHT22;9284;52.298;21.164;2023-05-02T09:16:43;24.40;99.90
18317;DHT22;9284;52.298;21.164;2023-05-02T09:19:22;24.00;99.90
18317;DHT22;9284;52.298;21.164;2023-05-02T09:21:51;23.50;99.90
18317;DHT22;9284;52.298;21.164;2023-05-02T09:24:21;23.00;99.90
18317;DHT22;9284;52.298;21.164;2023-05-02T09:26:57;22.70;99.90
18317;DHT22;9284;52.298;21.164;2023-05-02T09:29:27;22.50;99.90
18317;DHT22;9284;52.298;21.164;2023-05-02T09:31:58;22.60;99.90
18317;DHT22;9284;52.298;21.164;2023-05-02T09:34:26;22.20;99.90
18317;DHT22;9284;52.298;21.164;2023-05-02T09:36:54;22.40;99.90
18317;DHT22;9284;52.298;21.164;2023-05-02T09:39:24;22.60;99.90
18317;DHT22;9284;52.298;21.164;2023-05-02T09:41:55;22.40;99.90
18317;DHT22;9284;52.298;21.164;2023-05-02T09:44:25;22.10;99.90
18317;DHT22;9284;52.298;21.164;2023-05-02T09:46:54;21.80;99.90
18317;DHT22;9284;52.298;21.164;2023-05-02T09:49:40;21.80;99.90
18317;DHT22;9284;52.298;21.164;2023-05-02T09:52:10;21.40;99.90
18317;DHT22;9284;52.298;21.164;2023-05-02T09:54:38;20.90;99.90
18317;DHT22;9284;52.298;21.164;2023-05-02T09:57:07;20.80;99.90
18317;DHT22;9284;52.298;21.164;2023-05-02T09:59:38;20.80;99.90
18317;DHT22;9284;52.298;21.164;2023-05-02T10:02:07;20.70;99.90
18317;DHT22;9284;52.298;21.164;2023-05-02T10:04:39;20.70;99.90
18317;DHT22;9284;52.298;21.164;2023-05-02T10:07:09;20.70;99.90
18317;DHT22;9284;52.298;21.164;2023-05-02T10:09:42;20.60;99.90
18317;DHT22;9284;52.298;21.164;2023-05-02T10:12:14;20.40;99.90
18317;DHT22;9284;52.298;21.164;2023-05-02T10:14:48;20.40;99.90
18317;DHT22;9284;52.298;21.164;2023-05-02T10:17:21;20.50;99.90
18317;DHT22;9284;52.298;21.164;2023-05-02T10:19:58;20.40;99.90
18317;DHT22;9284;52.298;21.164;2023-05-02T10:22:28;20.40;99.90
18317;DHT22;9284;52.298;21.164;2023-05-02T10:24:57;20.50;99.90
18317;DHT22;9284;52.298;21.164;2023-05-02T10:27:28;20.70;99.90
18317;DHT22;9284;52.298;21.164;2023-05-02T10:29:58;20.60;99.90
18317;DHT22;9284;52.298;21.164;2023-05-02T10:32:28;20.70;99.90
18317;DHT22;9284;52.298;21.164;2023-05-02T10:35:02;20.70;99.90
18317;DHT22;9284;52.298;21.164;2023-05-02T10:37:33;20.80;99.90
18317;DHT22;9284;52.298;21.164;2023-05-02T10:40:07;20.60;99.90
18317;DHT22;9284;52.298;21.164;2023-05-02T10:42:37;20.30;99.90
18317;DHT22;9284;52.298;21.164;2023-05-02T10:45:10;20.20;99.90
18317;DHT22;9284;52.298;21.164;2023-05-02T10:47:39;20.00;99.90
18317;DHT22;9284;52.298;21.164;2023-05-02T10:50:09;20.10;99.90
18317;DHT22;9284;52.298;21.164;2023-05-02T10:52:38;20.10;99.90
18317;DHT22;9284;52.298;21.164;2023-05-02T10:55:19;20.10;99.90
18317;DHT22;9284;52.298;21.164;2023-05-02T10:58:19;19.80;99.90
18317;DHT22;9284;52.298;21.164;2023-05-02T11:00:48;19.50;99.90
18317;DHT22;9284;52.298;21.164;2023-05-02T11:06:19;19.10;99.90
18317;DHT22;9284;52.298;21.164;2023-05-02T11:08:48;19.00;99.90
18317;DHT22;9284;52.298;21.164;2023-05-02T11:11:39;18.80;99.90
18317;DHT22;9284;52.298;21.164;2023-05-02T11:14:09;18.80;99.90
18317;DHT22;9284;52.298;21.164;2023-05-02T11:17:06;18.60;99.90
18317;DHT22;9284;52.298;21.164;2023-05-02T11:23:20;17.90;99.90
18317;DHT22;9284;52.298;21.164;2023-05-02T11:25:52;17.70;99.90
18317;DHT22;9284;52.298;21.164;2023-05-02T11:28:40;17.60;99.90
18317;DHT22;9284;52.298;21.164;2023-05-02T11:31:51;17.20;99.90
18317;DHT22;9284;52.298;21.164;2023-05-02T11:34:20;16.80;99.90
18317;DHT22;9284;52.298;21.164;2023-05-02T11:36:49;16.20;1.00
18317;DHT22;9284;52.298;21.164;2023-05-02T11:39:30;15.90;1.00
18317;DHT22;9284;52.298;21.164;2023-05-02T11:41:59;15.70;99.90
18317;DHT22;9284;52.298;21.164;2023-05-02T11:44:27;15.40;1.00
18317;DHT22;9284;52.298;21.164;2023-05-02T11:46:55;15.10;99.90
18317;DHT22;9284;52.298;21.164;2023-05-02T11:49:24;15.00;1.00
18317;DHT22;9284;52.298;21.164;2023-05-02T11:51:52;14.80;1.00
18317;DHT22;9284;52.298;21.164;2023-05-02T11:54:22;14.70;1.00
18317;DHT22;9284;52.298;21.164;2023-05-02T11:56:50;14.70;9.60
18317;DHT22;9284;52.298;21.164;2023-05-02T11:59:18;14.80;1.00
18317;DHT22;9284;52.298;21.164;2023-05-02T12:01:47;14.90;1.00
18317;DHT22;9284;52.298;21.164;2023-05-02T12:04:16;15.20;81.50
18317;DHT22;9284;52.298;21.164;2023-05-02T12:06:54;15.30;99.90
18317;DHT22;9284;52.298;21.164;2023-05-02T12:09:24;15.60;1.00
18317;DHT22;9284;52.298;21.164;2023-05-02T12:11:52;15.70;99.90
18317;DHT22;9284;52.298;21.164;2023-05-02T12:14:28;15.80;99.90
18317;DHT22;9284;52.298;21.164;2023-05-02T12:16:58;15.80;99.90
18317;DHT22;9284;52.298;21.164;2023-05-02T12:19:27;15.90;51.80
18317;DHT22;9284;52.298;21.164;2023-05-02T12:21:57;16.00;1.00
18317;DHT22;9284;52.298;21.164;2023-05-02T12:24:28;16.20;1.00
18317;DHT22;9284;52.298;21.164;2023-05-02T12:27:08;16.30;1.00
18317;DHT22;9284;52.298;21.164;2023-05-02T12:29:38;16.50;1.00
18317;DHT22;9284;52.298;21.164;2023-05-02T12:32:06;16.70;1.00
18317;DHT22;9284;52.298;21.164;2023-05-02T12:34:35;16.90;99.90
18317;DHT22;9284;52.298;21.164;2023-05-02T12:37:05;17.00;99.90
18317;DHT22;9284;52.298;21.164;2023-05-02T12:39:35;17.10;99.90
18317;DHT22;9284;52.298;21.164;2023-05-02T12:42:10;17.30;92.50
18317;DHT22;9284;52.298;21.164;2023-05-02T12:44:39;17.50;77.10
18317;DHT22;9284;52.298;21.164;2023-05-02T12:47:11;17.60;31.70
18317;DHT22;9284;52.298;21.164;2023-05-02T12:49:50;17.70;13.90
18317;DHT22;9284;52.298;21.164;2023-05-02T12:52:19;17.80;1.00
18317;DHT22;9284;52.298;21.164;2023-05-02T12:54:49;17.70;1.00
18317;DHT22;9284;52.298;21.164;2023-05-02T12:57:24;17.80;1.00
18317;DHT22;9284;52.298;21.164;2023-05-02T12:59:52;17.80;1.00
18317;DHT22;9284;52.298;21.164;2023-05-02T13:02:22;17.80;1.00
18317;DHT22;9284;52.298;21.164;2023-05-02T13:04:51;17.70;1.00
18317;DHT22;9284;52.298;21.164;2023-05-02T13:07:20;18.00;1.00
18317;DHT22;9284;52.298;21.164;2023-05-02T13:09:49;18.00;1.00
18317;DHT22;9284;52.298;21.164;2023-05-02T13:12:18;18.00;1.00
18317;DHT22;9284;52.298;21.164;2023-05-02T13:14:47;18.10;1.00
18317;DHT22;9284;52.298;21.164;2023-05-02T13:17:15;18.00;1.00
18317;DHT22;9284;52.298;21.164;2023-05-02T13:19:43;17.70;1.00
18317;DHT22;9284;52.298;21.164;2023-05-02T13:22:28;17.70;1.00
18317;DHT22;9284;52.298;21.164;2023-05-02T13:24:57;17.60;1.00
18317;DHT22;9284;52.298;21.164;2023-05-02T13:27:26;17.50;1.00
18317;DHT22;9284;52.298;21.164;2023-05-02T13:29:54;17.50;1.00
18317;DHT22;9284;52.298;21.164;2023-05-02T13:32:23;17.50;1.00
18317;DHT22;9284;52.298;21.164;2023-05-02T13:34:51;17.60;1.00
18317;DHT22;9284;52.298;21.164;2023-05-02T13:37:19;17.80;1.00
18317;DHT22;9284;52.298;21.164;2023-05-02T13:39:48;18.10;1.00
18317;DHT22;9284;52.298;21.164;2023-05-02T13:42:17;18.30;99.90
18317;DHT22;9284;52.298;21.164;2023-05-02T13:44:45;18.50;99.90
18317;DHT22;9284;52.298;21.164;2023-05-02T13:47:14;18.60;99.90
18317;DHT22;9284;52.298;21.164;2023-05-02T13:49:42;18.90;99.90
18317;DHT22;9284;52.298;21.164;2023-05-02T13:52:10;18.80;99.90
18317;DHT22;9284;52.298;21.164;2023-05-02T13:54:39;18.90;99.90
18317;DHT22;9284;52.298;21.164;2023-05-02T13:57:07;19.00;99.90
18317;DHT22;9284;52.298;21.164;2023-05-02T13:59:37;18.90;99.90
18317;DHT22;9284;52.298;21.164;2023-05-02T14:02:05;19.00;99.90
18317;DHT22;9284;52.298;21.164;2023-05-02T14:04:34;19.10;99.90
18317;DHT22;9284;52.298;21.164;2023-05-02T14:07:02;19.10;99.90
18317;DHT22;9284;52.298;21.164;2023-05-02T14:09:30;19.00;99.90
18317;DHT22;9284;52.298;21.164;2023-05-02T14:11:59;19.00;99.90
18317;DHT22;9284;52.298;21.164;2023-05-02T14:14:28;19.20;99.90
18317;DHT22;9284;52.298;21.164;2023-05-02T14:16:57;19.10;99.90
18317;DHT22;9284;52.298;21.164;2023-05-02T14:19:27;18.90;99.90
18317;DHT22;9284;52.298;21.164;2023-05-02T14:21:56;18.90;99.90
18317;DHT22;9284;52.298;21.164;2023-05-02T14:24:24;18.90;99.90
18317;DHT22;9284;52.298;21.164;2023-05-02T14:26:52;18.60;99.90
18317;DHT22;9284;52.298;21.164;2023-05-02T14:29:21;18.60;99.90
18317;DHT22;9284;52.298;21.164;2023-05-02T14:31:49;18.60;99.90
18317;DHT22;9284;52.298;21.164;2023-05-02T14:34:19;18.70;99.90
18317;DHT22;9284;52.298;21.164;2023-05-02T14:36:48;18.70;99.90
18317;DHT22;9284;52.298;21.164;2023-05-02T14:39:16;18.70;99.90
18317;DHT22;9284;52.298;21.164;2023-05-02T14:41:45;18.70;99.90
18317;DHT22;9284;52.298;21.164;2023-05-02T14:44:14;18.60;99.90
18317;DHT22;9284;52.298;21.164;2023-05-02T14:46:44;18.60;99.90
18317;DHT22;9284;52.298;21.164;2023-05-02T14:49:13;18.60;99.90
18317;DHT22;9284;52.298;21.164;2023-05-02T14:51:42;18.50;99.90
18317;DHT22;9284;52.298;21.164;2023-05-02T14:54:13;18.50;99.90
18317;DHT22;9284;52.298;21.164;2023-05-02T14:56:42;18.50;99.90
18317;DHT22;9284;52.298;21.164;2023-05-02T14:59:10;18.50;99.90
18317;DHT22;9284;52.298;21.164;2023-05-02T15:01:39;18.50;99.90
18317;DHT22;9284;52.298;21.164;2023-05-02T15:04:07;18.50;99.90
18317;DHT22;9284;52.298;21.164;2023-05-02T15:06:36;18.40;99.90
18317;DHT22;9284;52.298;21.164;2023-05-02T15:09:07;18.40;99.90
18317;DHT22;9284;52.298;21.164;2023-05-02T15:11:35;18.30;99.90
18317;DHT22;9284;52.298;21.164;2023-05-02T15:14:03;18.20;99.90
18317;DHT22;9284;52.298;21.164;2023-05-02T15:16:32;18.30;99.90
18317;DHT22;9284;52.298;21.164;2023-05-02T15:19:02;18.20;99.90
18317;DHT22;9284;52.298;21.164;2023-05-02T15:21:31;18.20;99.90
18317;DHT22;9284;52.298;21.164;2023-05-02T15:24:00;18.20;99.90
18317;DHT22;9284;52.298;21.164;2023-05-02T15:26:30;18.10;99.90
18317;DHT22;9284;52.298;21.164;2023-05-02T15:28:58;18.20;99.90
18317;DHT22;9284;52.298;21.164;2023-05-02T15:31:26;18.10;99.90
18317;DHT22;9284;52.298;21.164;2023-05-02T15:33:55;18.10;99.90
18317;DHT22;9284;52.298;21.164;2023-05-02T15:36:25;18.20;99.90
18317;DHT22;9284;52.298;21.164;2023-05-02T15:38:54;18.20;99.90
18317;DHT22;9284;52.298;21.164;2023-05-02T15:41:24;18.10;99.90
18317;DHT22;9284;52.298;21.164;2023-05-02T15:43:54;18.00;99.90
18317;DHT22;9284;52.298;21.164;2023-05-02T15:46:22;18.00;99.90
18317;DHT22;9284;52.298;21.164;2023-05-02T15:48:50;18.00;99.90
18317;DHT22;9284;52.298;21.164;2023-05-02T15:51:19;18.00;99.90
18317;DHT22;9284;52.298;21.164;2023-05-02T15:53:47;18.00;99.90
18317;DHT22;9284;52.298;21.164;2023-05-02T15:56:18;18.00;99.90
18317;DHT22;9284;52.298;21.164;2023-05-02T15:58:47;18.10;99.90
18317;DHT22;9284;52.298;21.164;2023-05-02T16:01:18;18.10;99.90
18317;DHT22;9284;52.298;21.164;2023-05-02T16:03:50;18.00;99.90
18317;DHT22;9284;52.298;21.164;2023-05-02T16:06:18;18.00;99.90